sensor_id;sensor_type;location;lat;lon;timestamp;pressure;altitude;pressure_sealevel;temperature;humidity
70200;BME280;57587;55.688;37.600;2022-12-29T00:00:17;99249.94;;;2.19;64.77
70200;BME280;57587;55.688;37.600;2022-12-29T00:02:44;99249.69;;;2.22;64.51
70200;BME280;57587;55.688;37.600;2022-12-29T00:05:11;99246.75;;;2.25;64.64
70200;BME280;57587;55.688;37.600;2022-12-29T00:07:38;99241.34;;;2.17;64.45
70200;BME280;57587;55.688;37.600;2022-12-29T00:10:06;99259.69;;;2.09;63.61
70200;BME280;57587;55.688;37.600;2022-12-29T00:12:33;99253.69;;;2.17;63.18
70200;BME280;57587;55.688;37.600;2022-12-29T00:15:36;99249.13;;;2.19;63.64
70200;BME280;57587;55.688;37.600;2022-12-29T00:18:07;99260.94;;;2.15;62.69
70200;BME280;57587;55.688;37.600;2022-12-29T00:20:37;99253.84;;;2.15;62.32
70200;BME280;57587;55.688;37.600;2022-12-29T00:23:23;99256.06;;;2.10;62.36
70200;BME280;57587;55.688;37.600;2022-12-29T00:26:13;99272.72;;;2.01;62.72
70200;BME280;57587;55.688;37.600;2022-12-29T00:29:00;99265.50;;;1.93;61.99
70200;BME280;57587;55.688;37.600;2022-12-29T00:31:47;99264.09;;;1.89;62.72
70200;BME280;57587;55.688;37.600;2022-12-29T00:34:32;99262.16;;;1.91;62.55
70200;BME280;57587;55.688;37.600;2022-12-29T00:37:18;99270.75;;;1.83;62.37
70200;BME280;57587;55.688;37.600;2022-12-29T00:40:05;99276.31;;;1.80;61.93
70200;BME280;57587;55.688;37.600;2022-12-29T00:42:52;99270.88;;;1.82;61.69
70200;BME280;57587;55.688;37.600;2022-12-29T00:45:41;99277.56;;;1.86;61.96
70200;BME280;57587;55.688;37.600;2022-12-29T00:48:08;99278.78;;;1.82;62.01
70200;BME280;57587;55.688;37.600;2022-12-29T00:50:35;99276.41;;;1.79;62.32
70200;BME280;57587;55.688;37.600;2022-12-29T00:53:02;99278.22;;;1.78;62.48
70200;BME280;57587;55.688;37.600;2022-12-29T00:55:29;99279.22;;;1.77;62.23
70200;BME280;57587;55.688;37.600;2022-12-29T00:57:57;99279.88;;;1.79;61.60
70200;BME280;57587;55.688;37.600;2022-12-29T01:00:25;99281.72;;;1.89;62.01
70200;BME280;57587;55.688;37.600;2022-12-29T01:02:52;99291.59;;;1.87;61.54
70200;BME280;57587;55.688;37.600;2022-12-29T01:05:19;99279.63;;;1.82;61.83
70200;BME280;57587;55.688;37.600;2022-12-29T01:07:46;99283.78;;;1.85;61.76
70200;BME280;57587;55.688;37.600;2022-12-29T01:10:13;99281.44;;;1.92;61.49
70200;BME280;57587;55.688;37.600;2022-12-29T01:12:41;99282.31;;;1.92;61.77
70200;BME280;57587;55.688;37.600;2022-12-29T01:15:10;99281.31;;;1.93;61.43
70200;BME280;57587;55.688;37.600;2022-12-29T01:17:38;99281.88;;;1.97;61.22
70200;BME280;57587;55.688;37.600;2022-12-29T01:20:06;99291.59;;;1.96;62.34
70200;BME280;57587;55.688;37.600;2022-12-29T01:22:34;99297.16;;;2.03;62.08
70200;BME280;57587;55.688;37.600;2022-12-29T01:25:02;99287.69;;;1.91;61.01
70200;BME280;57587;55.688;37.600;2022-12-29T01:27:29;99299.22;;;1.90;61.04
70200;BME280;57587;55.688;37.600;2022-12-29T01:29:56;99295.44;;;1.82;61.85
70200;BME280;57587;55.688;37.600;2022-12-29T01:32:24;99294.22;;;1.87;60.56
70200;BME280;57587;55.688;37.600;2022-12-29T01:34:51;99304.59;;;1.78;61.20
70200;BME280;57587;55.688;37.600;2022-12-29T01:37:18;99297.94;;;1.74;60.84
70200;BME280;57587;55.688;37.600;2022-12-29T01:39:45;99298.88;;;1.73;61.90
70200;BME280;57587;55.688;37.600;2022-12-29T01:42:24;99307.94;;;1.80;61.92
70200;BME280;57587;55.688;37.600;2022-12-29T01:44:55;99299.63;;;1.85;61.49
70200;BME280;57587;55.688;37.600;2022-12-29T01:47:36;99303.25;;;1.84;61.29
70200;BME280;57587;55.688;37.600;2022-12-29T01:50:22;99295.97;;;1.76;61.39
70200;BME280;57587;55.688;37.600;2022-12-29T01:53:30;99296.69;;;1.78;61.78
70200;BME280;57587;55.688;37.600;2022-12-29T01:56:01;99304.47;;;1.80;61.56
70200;BME280;57587;55.688;37.600;2022-12-29T01:58:37;99306.59;;;1.86;61.56
70200;BME280;57587;55.688;37.600;2022-12-29T02:01:07;99305.34;;;1.90;60.79
70200;BME280;57587;55.688;37.600;2022-12-29T02:03:35;99297.69;;;1.87;60.58
70200;BME280;57587;55.688;37.600;2022-12-29T02:06:17;99303.34;;;1.82;61.21
70200;BME280;57587;55.688;37.600;2022-12-29T02:08:46;99309.34;;;1.84;61.48
70200;BME280;57587;55.688;37.600;2022-12-29T02:11:15;99306.16;;;1.81;61.04
70200;BME280;57587;55.688;37.600;2022-12-29T02:13:43;99306.13;;;1.71;60.87
70200;BME280;57587;55.688;37.600;2022-12-29T02:21:51;99312.03;;;1.64;61.53
70200;BME280;57587;55.688;37.600;2022-12-29T02:25:06;99315.50;;;1.64;61.55
70200;BME280;57587;55.688;37.600;2022-12-29T02:34:06;99321.16;;;1.50;61.73
70200;BME280;57587;55.688;37.600;2022-12-29T02:44:59;99321.59;;;1.24;61.68
70200;BME280;57587;55.688;37.600;2022-12-29T02:52:50;99321.59;;;1.03;62.87
70200;BME280;57587;55.688;37.600;2022-12-29T02:55:18;99320.31;;;0.98;63.31
70200;BME280;57587;55.688;37.600;2022-12-29T02:57:45;99324.75;;;0.97;63.42
70200;BME280;57587;55.688;37.600;2022-12-29T03:00:15;99328.09;;;0.99;62.12
70200;BME280;57587;55.688;37.600;2022-12-29T03:06:22;99342.44;;;1.06;62.63
70200;BME280;57587;55.688;37.600;2022-12-29T03:09:14;99335.88;;;1.01;62.31
70200;BME280;57587;55.688;37.600;2022-12-29T03:11:59;99334.38;;;1.08;62.66
70200;BME280;57587;55.688;37.600;2022-12-29T03:14:48;99341.34;;;1.09;62.07
70200;BME280;57587;55.688;37.600;2022-12-29T03:17:58;99341.50;;;1.17;62.33
70200;BME280;57587;55.688;37.600;2022-12-29T03:20:53;99345.13;;;1.16;62.69
70200;BME280;57587;55.688;37.600;2022-12-29T03:23:23;99347.63;;;0.97;62.55
70200;BME280;57587;55.688;37.600;2022-12-29T03:25:56;99341.44;;;0.86;62.97
70200;BME280;57587;55.688;37.600;2022-12-29T03:28:32;99354.88;;;0.83;62.48
70200;BME280;57587;55.688;37.600;2022-12-29T03:31:03;99355.47;;;0.87;62.09
70200;BME280;57587;55.688;37.600;2022-12-29T03:33:32;99362.47;;;0.98;62.41
70200;BME280;57587;55.688;37.600;2022-12-29T03:36:04;99353.84;;;0.96;61.96
70200;BME280;57587;55.688;37.600;2022-12-29T03:38:44;99359.50;;;0.91;62.70
70200;BME280;57587;55.688;37.600;2022-12-29T03:41:18;99364.38;;;0.96;62.70
70200;BME280;57587;55.688;37.600;2022-12-29T03:43:47;99367.75;;;0.98;61.83
70200;BME280;57587;55.688;37.600;2022-12-29T03:46:14;99368.25;;;0.91;62.40
70200;BME280;57587;55.688;37.600;2022-12-29T03:48:41;99375.94;;;0.83;62.73
70200;BME280;57587;55.688;37.600;2022-12-29T03:51:09;99375.75;;;0.75;62.91
70200;BME280;57587;55.688;37.600;2022-12-29T03:53:36;99382.69;;;0.76;62.47
70200;BME280;57587;55.688;37.600;2022-12-29T03:56:03;99381.22;;;0.83;62.53
70200;BME280;57587;55.688;37.600;2022-12-29T03:58:31;99384.56;;;0.85;62.55
70200;BME280;57587;55.688;37.600;2022-12-29T04:01:04;99387.09;;;0.87;62.19
70200;BME280;57587;55.688;37.600;2022-12-29T04:03:35;99383.81;;;0.95;62.01
70200;BME280;57587;55.688;37.600;2022-12-29T04:06:03;99382.72;;;0.97;61.64
70200;BME280;57587;55.688;37.600;2022-12-29T04:08:49;99377.81;;;0.92;62.18
70200;BME280;57587;55.688;37.600;2022-12-29T04:11:16;99388.09;;;0.96;62.47
70200;BME280;57587;55.688;37.600;2022-12-29T04:13:45;99392.69;;;0.94;61.70
70200;BME280;57587;55.688;37.600;2022-12-29T04:16:15;99387.91;;;0.87;61.70
70200;BME280;57587;55.688;37.600;2022-12-29T04:18:44;99389.72;;;0.87;62.04
70200;BME280;57587;55.688;37.600;2022-12-29T04:21:11;99388.16;;;0.84;61.93
70200;BME280;57587;55.688;37.600;2022-12-29T04:23:41;99393.69;;;0.81;61.70
70200;BME280;57587;55.688;37.600;2022-12-29T04:26:10;99397.00;;;0.83;61.67
70200;BME280;57587;55.688;37.600;2022-12-29T04:29:02;99393.19;;;0.87;62.11
70200;BME280;57587;55.688;37.600;2022-12-29T04:31:58;99403.22;;;0.94;62.21
70200;BME280;57587;55.688;37.600;2022-12-29T04:34:27;99396.88;;;0.96;62.31
70200;BME280;57587;55.688;37.600;2022-12-29T04:36:54;99395.50;;;1.02;61.65
70200;BME280;57587;55.688;37.600;2022-12-29T04:39:22;99393.31;;;1.07;61.36
70200;BME280;57587;55.688;37.600;2022-12-29T04:41:49;99400.91;;;1.00;61.89
70200;BME280;57587;55.688;37.600;2022-12-29T04:44:19;99397.19;;;1.03;61.49
70200;BME280;57587;55.688;37.600;2022-12-29T04:46:52;99400.50;;;1.05;60.78
70200;BME280;57587;55.688;37.600;2022-12-29T04:49:39;99408.47;;;0.94;61.22
70200;BME280;57587;55.688;37.600;2022-12-29T04:52:15;99404.91;;;0.83;60.92
70200;BME280;57587;55.688;37.600;2022-12-29T04:54:45;99411.66;;;0.76;61.27
70200;BME280;57587;55.688;37.600;2022-12-29T04:57:17;99405.91;;;0.71;61.30
70200;BME280;57587;55.688;37.600;2022-12-29T04:59:50;99413.97;;;0.58;61.55
70200;BME280;57587;55.688;37.600;2022-12-29T05:02:17;99409.59;;;0.48;61.55
70200;BME280;57587;55.688;37.600;2022-12-29T05:04:47;99411.63;;;0.44;61.45
70200;BME280;57587;55.688;37.600;2022-12-29T05:07:15;99410.19;;;0.40;61.69
70200;BME280;57587;55.688;37.600;2022-12-29T05:09:44;99413.69;;;0.40;61.60
70200;BME280;57587;55.688;37.600;2022-12-29T05:12:11;99430.06;;;0.44;61.97
70200;BME280;57587;55.688;37.600;2022-12-29T05:14:47;99428.84;;;0.48;61.82
70200;BME280;57587;55.688;37.600;2022-12-29T05:17:14;99425.00;;;0.52;62.20
70200;BME280;57587;55.688;37.600;2022-12-29T05:19:41;99427.28;;;0.57;62.82
70200;BME280;57587;55.688;37.600;2022-12-29T05:22:08;99425.34;;;0.59;61.82
70200;BME280;57587;55.688;37.600;2022-12-29T05:24:37;99426.19;;;0.59;62.15
70200;BME280;57587;55.688;37.600;2022-12-29T05:27:04;99425.47;;;0.68;61.76
70200;BME280;57587;55.688;37.600;2022-12-29T05:29:54;99424.47;;;0.69;60.94
70200;BME280;57587;55.688;37.600;2022-12-29T05:32:21;99426.06;;;0.61;61.89
70200;BME280;57587;55.688;37.600;2022-12-29T05:34:48;99424.41;;;0.60;61.33
70200;BME280;57587;55.688;37.600;2022-12-29T05:37:17;99430.16;;;0.54;61.63
70200;BME280;57587;55.688;37.600;2022-12-29T05:39:44;99440.94;;;0.51;62.47
70200;BME280;57587;55.688;37.600;2022-12-29T05:42:12;99438.75;;;0.56;61.37
70200;BME280;57587;55.688;37.600;2022-12-29T05:45:00;99442.59;;;0.63;62.27
70200;BME280;57587;55.688;37.600;2022-12-29T05:47:41;99441.63;;;0.64;61.92
70200;BME280;57587;55.688;37.600;2022-12-29T05:50:29;99448.03;;;0.71;61.43
70200;BME280;57587;55.688;37.600;2022-12-29T05:53:22;99441.84;;;0.72;61.26
70200;BME280;57587;55.688;37.600;2022-12-29T05:55:49;99451.41;;;0.73;60.92
70200;BME280;57587;55.688;37.600;2022-12-29T05:58:17;99443.75;;;0.70;61.14
70200;BME280;57587;55.688;37.600;2022-12-29T06:00:44;99454.88;;;0.74;61.62
70200;BME280;57587;55.688;37.600;2022-12-29T06:03:12;99449.34;;;0.77;60.69
70200;BME280;57587;55.688;37.600;2022-12-29T06:05:40;99447.81;;;0.74;60.51
70200;BME280;57587;55.688;37.600;2022-12-29T06:08:08;99452.13;;;0.75;60.96
70200;BME280;57587;55.688;37.600;2022-12-29T06:10:35;99449.25;;;0.78;61.14
70200;BME280;57587;55.688;37.600;2022-12-29T06:13:04;99449.34;;;0.77;61.01
70200;BME280;57587;55.688;37.600;2022-12-29T06:15:36;99446.59;;;0.78;61.05
70200;BME280;57587;55.688;37.600;2022-12-29T06:18:06;99450.81;;;0.81;60.33
70200;BME280;57587;55.688;37.600;2022-12-29T06:20:33;99447.06;;;0.83;61.64
70200;BME280;57587;55.688;37.600;2022-12-29T06:23:03;99454.22;;;0.92;60.85
70200;BME280;57587;55.688;37.600;2022-12-29T06:25:31;99456.16;;;0.90;61.04
70200;BME280;57587;55.688;37.600;2022-12-29T06:27:59;99456.97;;;0.91;60.66
70200;BME280;57587;55.688;37.600;2022-12-29T06:30:26;99460.66;;;1.00;60.05
70200;BME280;57587;55.688;37.600;2022-12-29T06:32:54;99448.81;;;0.94;60.87
70200;BME280;57587;55.688;37.600;2022-12-29T06:35:22;99453.97;;;0.96;60.64
70200;BME280;57587;55.688;37.600;2022-12-29T06:37:51;99460.66;;;1.00;61.67
70200;BME280;57587;55.688;37.600;2022-12-29T06:40:19;99461.34;;;1.02;60.74
70200;BME280;57587;55.688;37.600;2022-12-29T06:43:06;99461.09;;;1.05;60.35
70200;BME280;57587;55.688;37.600;2022-12-29T06:46:00;99450.47;;;1.06;60.47
70200;BME280;57587;55.688;37.600;2022-12-29T06:48:27;99460.59;;;1.11;61.67
70200;BME280;57587;55.688;37.600;2022-12-29T06:50:54;99454.50;;;1.10;61.27
70200;BME280;57587;55.688;37.600;2022-12-29T06:53:21;99461.44;;;1.11;60.58
70200;BME280;57587;55.688;37.600;2022-12-29T06:55:48;99467.34;;;1.04;60.37
70200;BME280;57587;55.688;37.600;2022-12-29T06:58:19;99464.50;;;0.96;59.78
70200;BME280;57587;55.688;37.600;2022-12-29T07:00:46;99464.25;;;0.99;59.69
70200;BME280;57587;55.688;37.600;2022-12-29T07:03:14;99460.09;;;0.96;59.78
70200;BME280;57587;55.688;37.600;2022-12-29T07:05:41;99456.09;;;1.02;60.58
70200;BME280;57587;55.688;37.600;2022-12-29T07:08:08;99457.63;;;1.04;60.46
70200;BME280;57587;55.688;37.600;2022-12-29T07:10:35;99455.47;;;1.09;60.23
70200;BME280;57587;55.688;37.600;2022-12-29T07:13:02;99469.09;;;1.14;59.64
70200;BME280;57587;55.688;37.600;2022-12-29T07:15:29;99466.81;;;1.21;59.22
70200;BME280;57587;55.688;37.600;2022-12-29T07:17:57;99462.47;;;1.20;59.15
70200;BME280;57587;55.688;37.600;2022-12-29T07:20:23;99468.16;;;1.15;58.79
70200;BME280;57587;55.688;37.600;2022-12-29T07:22:53;99473.50;;;1.25;59.06
70200;BME280;57587;55.688;37.600;2022-12-29T07:25:20;99472.16;;;2.03;57.19
70200;BME280;57587;55.688;37.600;2022-12-29T07:27:47;99469.41;;;2.36;56.25
70200;BME280;57587;55.688;37.600;2022-12-29T07:30:15;99465.25;;;2.43;56.44
70200;BME280;57587;55.688;37.600;2022-12-29T07:32:43;99470.44;;;2.54;55.81
70200;BME280;57587;55.688;37.600;2022-12-29T07:35:34;99460.22;;;2.40;55.25
70200;BME280;57587;55.688;37.600;2022-12-29T07:38:01;99457.56;;;2.30;55.76
70200;BME280;57587;55.688;37.600;2022-12-29T07:40:28;99464.25;;;2.34;55.04
70200;BME280;57587;55.688;37.600;2022-12-29T07:42:55;99465.78;;;2.37;55.97
70200;BME280;57587;55.688;37.600;2022-12-29T07:45:31;99470.25;;;2.46;56.47
70200;BME280;57587;55.688;37.600;2022-12-29T07:48:07;99473.00;;;2.35;55.57
70200;BME280;57587;55.688;37.600;2022-12-29T07:50:35;99478.69;;;2.30;55.41
70200;BME280;57587;55.688;37.600;2022-12-29T07:53:03;99477.25;;;2.26;56.77
70200;BME280;57587;55.688;37.600;2022-12-29T07:55:30;99482.81;;;2.23;55.40
70200;BME280;57587;55.688;37.600;2022-12-29T07:57:57;99481.66;;;2.16;55.56
70200;BME280;57587;55.688;37.600;2022-12-29T08:00:24;99488.84;;;2.04;55.65
70200;BME280;57587;55.688;37.600;2022-12-29T08:02:52;99492.72;;;2.00;56.05
70200;BME280;57587;55.688;37.600;2022-12-29T08:05:19;99493.59;;;2.10;57.22
70200;BME280;57587;55.688;37.600;2022-12-29T08:07:46;99494.50;;;2.20;55.38
70200;BME280;57587;55.688;37.600;2022-12-29T08:10:15;99499.56;;;2.43;55.79
70200;BME280;57587;55.688;37.600;2022-12-29T08:12:42;99489.88;;;2.53;54.93
70200;BME280;57587;55.688;37.600;2022-12-29T08:15:11;99491.84;;;2.51;55.51
70200;BME280;57587;55.688;37.600;2022-12-29T08:17:38;99496.25;;;2.50;55.18
70200;BME280;57587;55.688;37.600;2022-12-29T08:20:06;99501.78;;;2.38;55.16
70200;BME280;57587;55.688;37.600;2022-12-29T08:22:34;99506.72;;;2.21;54.79
70200;BME280;57587;55.688;37.600;2022-12-29T08:25:01;99499.81;;;1.99;55.88
70200;BME280;57587;55.688;37.600;2022-12-29T08:27:29;99497.94;;;1.90;55.95
70200;BME280;57587;55.688;37.600;2022-12-29T08:29:56;99504.31;;;1.88;56.28
70200;BME280;57587;55.688;37.600;2022-12-29T08:32:23;99496.28;;;1.89;56.29
70200;BME280;57587;55.688;37.600;2022-12-29T08:34:50;99498.19;;;1.87;56.05
70200;BME280;57587;55.688;37.600;2022-12-29T08:37:17;99501.88;;;1.96;56.12
70200;BME280;57587;55.688;37.600;2022-12-29T08:39:44;99501.47;;;2.00;57.34
70200;BME280;57587;55.688;37.600;2022-12-29T08:42:11;99509.53;;;1.99;56.04
70200;BME280;57587;55.688;37.600;2022-12-29T08:44:38;99503.72;;;2.05;56.19
70200;BME280;57587;55.688;37.600;2022-12-29T08:47:05;99498.97;;;2.29;56.27
70200;BME280;57587;55.688;37.600;2022-12-29T08:49:32;99493.03;;;2.37;55.94
70200;BME280;57587;55.688;37.600;2022-12-29T08:52:00;99497.13;;;2.51;55.13
70200;BME280;57587;55.688;37.600;2022-12-29T08:54:27;99497.41;;;2.58;54.81
70200;BME280;57587;55.688;37.600;2022-12-29T08:56:54;99492.94;;;2.58;54.29
70200;BME280;57587;55.688;37.600;2022-12-29T08:59:26;99493.50;;;2.52;54.23
70200;BME280;57587;55.688;37.600;2022-12-29T09:01:53;99493.09;;;2.26;54.62
70200;BME280;57587;55.688;37.600;2022-12-29T09:04:20;99503.97;;;2.02;55.33
70200;BME280;57587;55.688;37.600;2022-12-29T09:06:48;99500.69;;;1.89;56.15
70200;BME280;57587;55.688;37.600;2022-12-29T09:09:15;99501.47;;;1.79;56.43
70200;BME280;57587;55.688;37.600;2022-12-29T09:16:45;99503.41;;;1.98;55.41
70200;BME280;57587;55.688;37.600;2022-12-29T09:19:30;99503.72;;;2.05;55.51
70200;BME280;57587;55.688;37.600;2022-12-29T09:21:57;99514.44;;;2.13;55.21
70200;BME280;57587;55.688;37.600;2022-12-29T09:24:24;99508.91;;;2.16;54.69
70200;BME280;57587;55.688;37.600;2022-12-29T09:26:51;99490.91;;;2.31;54.62
70200;BME280;57587;55.688;37.600;2022-12-29T09:29:19;99499.84;;;2.40;54.57
70200;BME280;57587;55.688;37.600;2022-12-29T09:31:46;99503.19;;;2.42;54.25
70200;BME280;57587;55.688;37.600;2022-12-29T09:34:13;99489.91;;;2.22;54.86
70200;BME280;57587;55.688;37.600;2022-12-29T09:36:40;99497.56;;;2.25;55.24
70200;BME280;57587;55.688;37.600;2022-12-29T09:39:07;99497.28;;;2.28;55.65
70200;BME280;57587;55.688;37.600;2022-12-29T09:41:49;99494.22;;;2.23;54.95
70200;BME280;57587;55.688;37.600;2022-12-29T09:47:26;99507.50;;;2.43;54.92
70200;BME280;57587;55.688;37.600;2022-12-29T09:50:02;99500.31;;;2.54;54.41
70200;BME280;57587;55.688;37.600;2022-12-29T09:52:47;99499.34;;;2.56;54.65
70200;BME280;57587;55.688;37.600;2022-12-29T09:55:19;99499.34;;;2.65;55.00
70200;BME280;57587;55.688;37.600;2022-12-29T09:57:54;99498.53;;;2.65;55.15
70200;BME280;57587;55.688;37.600;2022-12-29T10:00:56;99506.88;;;2.60;55.43
70200;BME280;57587;55.688;37.600;2022-12-29T10:03:24;99499.56;;;2.43;54.86
70200;BME280;57587;55.688;37.600;2022-12-29T10:09:00;99504.34;;;2.18;55.01
70200;BME280;57587;55.688;37.600;2022-12-29T10:21:08;99485.34;;;2.24;56.38
70200;BME280;57587;55.688;37.600;2022-12-29T10:23:51;99495.34;;;2.30;56.14
70200;BME280;57587;55.688;37.600;2022-12-29T10:26:41;99508.91;;;2.16;56.68
70200;BME280;57587;55.688;37.600;2022-12-29T10:29:20;99512.00;;;2.21;56.93
70200;BME280;57587;55.688;37.600;2022-12-29T10:31:58;99495.63;;;2.27;56.59
70200;BME280;57587;55.688;37.600;2022-12-29T10:34:39;99507.94;;;2.17;57.39
70200;BME280;57587;55.688;37.600;2022-12-29T10:40:36;99499.09;;;2.28;56.81
70200;BME280;57587;55.688;37.600;2022-12-29T10:43:57;99504.53;;;2.26;56.36
70200;BME280;57587;55.688;37.600;2022-12-29T10:46:07;99510.63;;;2.27;56.04
70200;BME280;57587;55.688;37.600;2022-12-29T10:48:36;99508.38;;;2.22;57.33
70200;BME280;57587;55.688;37.600;2022-12-29T10:51:06;99516.19;;;2.24;56.86
70200;BME280;57587;55.688;37.600;2022-12-29T10:53:43;99502.84;;;2.25;56.72
70200;BME280;57587;55.688;37.600;2022-12-29T10:56:43;99502.16;;;2.23;57.17
70200;BME280;57587;55.688;37.600;2022-12-29T10:59:20;99505.63;;;2.24;57.13
70200;BME280;57587;55.688;37.600;2022-12-29T11:02:00;99506.56;;;2.23;57.44
70200;BME280;57587;55.688;37.600;2022-12-29T11:07:25;99497.78;;;2.13;58.00
70200;BME280;57587;55.688;37.600;2022-12-29T11:09:53;99489.84;;;2.13;58.29
70200;BME280;57587;55.688;37.600;2022-12-29T11:12:24;99483.59;;;2.14;57.06
70200;BME280;57587;55.688;37.600;2022-12-29T11:15:20;99475.81;;;2.12;58.07
70200;BME280;57587;55.688;37.600;2022-12-29T11:17:53;99481.66;;;2.16;57.28
70200;BME280;57587;55.688;37.600;2022-12-29T11:20:35;99480.56;;;2.18;56.97
70200;BME280;57587;55.688;37.600;2022-12-29T11:23:26;99478.31;;;2.14;57.49
70200;BME280;57587;55.688;37.600;2022-12-29T11:26:06;99479.00;;;2.06;57.48
70200;BME280;57587;55.688;37.600;2022-12-29T11:28:34;99481.38;;;2.09;58.61
70200;BME280;57587;55.688;37.600;2022-12-29T11:31:03;99478.66;;;2.20;57.63
70200;BME280;57587;55.688;37.600;2022-12-29T11:33:31;99482.25;;;2.19;57.74
70200;BME280;57587;55.688;37.600;2022-12-29T11:36:04;99485.03;;;2.18;58.67
70200;BME280;57587;55.688;37.600;2022-12-29T11:38:38;99484.19;;;2.17;57.87
70200;BME280;57587;55.688;37.600;2022-12-29T11:41:06;99477.41;;;2.24;58.02
70200;BME280;57587;55.688;37.600;2022-12-29T11:43:40;99479.22;;;2.24;58.56
70200;BME280;57587;55.688;37.600;2022-12-29T11:46:14;99481.03;;;2.23;57.43
70200;BME280;57587;55.688;37.600;2022-12-29T11:48:43;99487.38;;;2.11;57.61
70200;BME280;57587;55.688;37.600;2022-12-29T11:51:21;99485.25;;;2.05;57.48
70200;BME280;57587;55.688;37.600;2022-12-29T11:53:57;99486.56;;;1.90;58.16
70200;BME280;57587;55.688;37.600;2022-12-29T11:56:36;99497.38;;;1.66;58.68
70200;BME280;57587;55.688;37.600;2022-12-29T12:02:35;99498.66;;;1.71;59.16
70200;BME280;57587;55.688;37.600;2022-12-29T12:05:17;99503.28;;;1.79;59.18
70200;BME280;57587;55.688;37.600;2022-12-29T12:07:52;99510.09;;;1.81;59.17
70200;BME280;57587;55.688;37.600;2022-12-29T12:10:29;99508.75;;;1.87;59.52
70200;BME280;57587;55.688;37.600;2022-12-29T12:13:03;99508.88;;;1.85;59.03
70200;BME280;57587;55.688;37.600;2022-12-29T12:15:50;99510.31;;;1.90;59.28
70200;BME280;57587;55.688;37.600;2022-12-29T12:24:08;99511.97;;;1.70;60.20
70200;BME280;57587;55.688;37.600;2022-12-29T12:32:41;99504.25;;;1.78;61.47
70200;BME280;57587;55.688;37.600;2022-12-29T12:35:13;99503.84;;;1.82;61.37
70200;BME280;57587;55.688;37.600;2022-12-29T12:43:51;99506.75;;;1.79;61.64
70200;BME280;57587;55.688;37.600;2022-12-29T13:00:46;99498.66;;;1.71;62.31
70200;BME280;57587;55.688;37.600;2022-12-29T13:07:02;99503.81;;;1.52;62.90
70200;BME280;57587;55.688;37.600;2022-12-29T13:20:19;99504.56;;;1.64;64.02
70200;BME280;57587;55.688;37.600;2022-12-29T13:28:06;99508.69;;;1.77;63.85
70200;BME280;57587;55.688;37.600;2022-12-29T13:31:00;99510.94;;;1.82;64.01
70200;BME280;57587;55.688;37.600;2022-12-29T13:36:26;99508.13;;;1.74;63.94
70200;BME280;57587;55.688;37.600;2022-12-29T13:41:53;99508.44;;;1.80;64.12
70200;BME280;57587;55.688;37.600;2022-12-29T13:44:46;99500.97;;;1.85;63.78
70200;BME280;57587;55.688;37.600;2022-12-29T13:47:35;99510.41;;;1.88;64.43
70200;BME280;57587;55.688;37.600;2022-12-29T13:50:10;99503.53;;;1.97;63.60
70200;BME280;57587;55.688;37.600;2022-12-29T13:55:53;99494.91;;;1.95;63.31
70200;BME280;57587;55.688;37.600;2022-12-29T13:58:31;99495.41;;;1.89;63.41
70200;BME280;57587;55.688;37.600;2022-12-29T14:01:29;99501.31;;;1.92;63.06
70200;BME280;57587;55.688;37.600;2022-12-29T14:04:00;99491.56;;;1.93;63.49
70200;BME280;57587;55.688;37.600;2022-12-29T14:06:31;99501.16;;;1.94;63.16
70200;BME280;57587;55.688;37.600;2022-12-29T14:09:01;99502.66;;;1.87;63.15
70200;BME280;57587;55.688;37.600;2022-12-29T14:11:34;99503.47;;;1.66;63.64
70200;BME280;57587;55.688;37.600;2022-12-29T14:14:18;99496.03;;;1.50;63.93
70200;BME280;57587;55.688;37.600;2022-12-29T14:16:48;99497.44;;;1.54;64.08
70200;BME280;57587;55.688;37.600;2022-12-29T14:19:19;99494.28;;;1.40;64.21
70200;BME280;57587;55.688;37.600;2022-12-29T14:21:57;99500.56;;;1.27;65.28
70200;BME280;57587;55.688;37.600;2022-12-29T14:34:58;99493.84;;;1.23;65.23
70200;BME280;57587;55.688;37.600;2022-12-29T14:37:30;99500.81;;;1.24;65.27
70200;BME280;57587;55.688;37.600;2022-12-29T14:42:48;99501.97;;;1.31;65.46
70200;BME280;57587;55.688;37.600;2022-12-29T14:47:48;99506.72;;;1.05;65.87
70200;BME280;57587;55.688;37.600;2022-12-29T14:50:23;99504.72;;;1.09;66.08
70200;BME280;57587;55.688;37.600;2022-12-29T14:53:02;99508.38;;;1.18;65.78
70200;BME280;57587;55.688;37.600;2022-12-29T14:55:41;99508.00;;;1.22;65.50
70200;BME280;57587;55.688;37.600;2022-12-29T14:58:20;99507.19;;;1.22;65.90
70200;BME280;57587;55.688;37.600;2022-12-29T15:00:49;99505.38;;;1.22;64.87
70200;BME280;57587;55.688;37.600;2022-12-29T15:05:55;99505.88;;;1.16;64.44
70200;BME280;57587;55.688;37.600;2022-12-29T15:08:25;99508.03;;;1.11;64.97
70200;BME280;57587;55.688;37.600;2022-12-29T15:10:58;99508.00;;;1.22;64.85
70200;BME280;57587;55.688;37.600;2022-12-29T15:13:36;99508.47;;;1.27;64.64
70200;BME280;57587;55.688;37.600;2022-12-29T15:16:04;99508.50;;;1.16;64.94
70200;BME280;57587;55.688;37.600;2022-12-29T15:18:33;99506.72;;;1.05;64.82
70200;BME280;57587;55.688;37.600;2022-12-29T15:21:02;99513.84;;;0.94;65.29
70200;BME280;57587;55.688;37.600;2022-12-29T15:23:32;99511.72;;;0.87;65.29
70200;BME280;57587;55.688;37.600;2022-12-29T15:26:09;99512.06;;;0.83;65.78
70200;BME280;57587;55.688;37.600;2022-12-29T15:28:45;99515.03;;;0.89;65.01
70200;BME280;57587;55.688;37.600;2022-12-29T15:31:18;99506.69;;;0.84;65.56
70200;BME280;57587;55.688;37.600;2022-12-29T15:34:03;99493.03;;;0.90;65.57
70200;BME280;57587;55.688;37.600;2022-12-29T15:36:40;99494.19;;;0.98;65.52
70200;BME280;57587;55.688;37.600;2022-12-29T15:39:25;99490.09;;;1.05;65.09
70200;BME280;57587;55.688;37.600;2022-12-29T15:44:44;99490.81;;;1.07;64.71
70200;BME280;57587;55.688;37.600;2022-12-29T15:47:19;99495.69;;;1.11;65.13
70200;BME280;57587;55.688;37.600;2022-12-29T15:49:50;99492.22;;;1.11;65.14
70200;BME280;57587;55.688;37.600;2022-12-29T15:52:19;99493.53;;;1.17;65.23